createdAt,value
2019-04-28T00:01:23.117Z,21.10
2019-04-28T00:04:28.565Z,21.10
2019-04-28T00:07:34.201Z,21.10
2019-04-28T00:10:39.651Z,21.10
2019-04-28T00:13:49.555Z,21.10
2019-04-28T00:16:56.245Z,21.00
2019-04-28T00:20:04.715Z,21.00
2019-04-28T00:23:21.847Z,21.00
2019-04-28T00:26:36.656Z,21.00
2019-04-28T00:29:46.033Z,21.00
2019-04-28T00:32:49.614Z,21.00
2019-04-28T00:35:56.907Z,21.00
2019-04-28T00:39:02.471Z,21.00
2019-04-28T00:42:12.514Z,21.00
2019-04-28T00:45:18.254Z,21.00
2019-04-28T00:48:23.682Z,20.90
2019-04-28T00:51:29.096Z,21.00
2019-04-28T00:54:34.684Z,20.90
2019-04-28T00:57:41.618Z,20.90
2019-04-28T01:00:48.915Z,20.90
2019-04-28T01:03:54.441Z,20.90
2019-04-28T01:07:01.707Z,20.90
2019-04-28T01:10:08.062Z,20.90
2019-04-28T01:13:13.650Z,20.90
2019-04-28T01:16:30.054Z,20.90
2019-04-28T01:19:39.857Z,20.90
2019-04-28T01:22:45.543Z,20.90
2019-04-28T01:25:52.258Z,20.90
2019-04-28T01:28:59.725Z,20.90
2019-04-28T01:32:20.345Z,20.90
2019-04-28T01:35:29.481Z,20.90
2019-04-28T01:38:36.826Z,20.90
2019-04-28T01:41:46.826Z,20.80
2019-04-28T01:44:52.337Z,20.80
2019-04-28T01:48:00.476Z,20.80
2019-04-28T01:51:05.106Z,20.80
2019-04-28T01:54:11.753Z,20.80
2019-04-28T01:57:17.390Z,20.80
2019-04-28T02:00:25.560Z,20.80
2019-04-28T02:03:31.274Z,20.80
2019-04-28T02:06:36.773Z,20.80
2019-04-28T02:09:44.019Z,20.80
2019-04-28T02:12:50.367Z,20.80
2019-04-28T02:15:55.856Z,20.80
2019-04-28T02:19:01.411Z,20.80
2019-04-28T02:22:27.671Z,20.80
2019-04-28T02:25:34.210Z,20.80
2019-04-28T02:28:40.757Z,20.80
2019-04-28T02:31:46.241Z,20.80
2019-04-28T02:34:51.642Z,20.80
2019-04-28T02:37:57.198Z,20.70
2019-04-28T02:41:02.688Z,20.80
2019-04-28T02:44:10.401Z,20.70
2019-04-28T02:47:16.495Z,20.70
2019-04-28T02:50:41.115Z,20.70
2019-04-28T02:53:51.113Z,20.70
2019-04-28T02:56:56.004Z,20.70
2019-04-28T03:00:01.870Z,20.70
2019-04-28T03:03:07.723Z,20.70
2019-04-28T03:06:15.056Z,20.70
2019-04-28T03:09:21.804Z,20.70
2019-04-28T03:12:31.161Z,20.70
2019-04-28T03:15:36.849Z,20.70
2019-04-28T03:18:43.474Z,20.70
2019-04-28T03:21:50.969Z,20.70
2019-04-28T03:25:00.934Z,20.70
2019-04-28T03:28:17.140Z,20.70
2019-04-28T03:32:01.621Z,20.70
2019-04-28T03:34:44.406Z,20.60
2019-04-28T03:37:52.052Z,20.60
2019-04-28T03:41:00.795Z,20.60
2019-04-28T03:44:07.654Z,20.60
2019-04-28T03:47:17.085Z,20.60
2019-04-28T03:50:22.722Z,20.60
2019-04-28T03:53:31.197Z,20.60
2019-04-28T03:56:37.063Z,20.60
2019-04-28T03:59:43.740Z,20.60
2019-04-28T04:02:50.830Z,20.60
2019-04-28T04:05:56.384Z,20.60
2019-04-28T04:09:03.411Z,20.60
2019-04-28T04:12:32.354Z,20.60
2019-04-28T04:15:50.745Z,20.60
2019-04-28T04:18:55.802Z,20.60
2019-04-28T04:22:02.534Z,20.60
2019-04-28T04:25:10.220Z,20.60
2019-04-28T04:28:17.058Z,20.60
2019-04-28T04:31:22.680Z,20.60
2019-04-28T04:34:30.207Z,20.60
2019-04-28T04:37:37.455Z,20.50
2019-04-28T04:40:43.047Z,20.60
2019-04-28T04:43:51.051Z,20.60
2019-04-28T04:46:57.444Z,20.60
2019-04-28T04:50:04.778Z,20.60
2019-04-28T04:53:10.959Z,20.50
2019-04-28T04:56:16.935Z,20.50
2019-04-28T04:59:22.412Z,20.60
2019-04-28T05:02:35.669Z,20.60
2019-04-28T05:05:42.202Z,20.60
2019-04-28T05:08:49.911Z,20.60
2019-04-28T05:11:55.538Z,20.70
2019-04-28T05:15:01.192Z,20.70
2019-04-28T05:18:07.871Z,20.70
2019-04-28T05:21:13.313Z,20.80
2019-04-28T05:24:41.251Z,20.80
2019-04-28T05:27:49.922Z,20.80
2019-04-28T05:30:54.860Z,20.80
2019-04-28T05:34:04.151Z,20.90
2019-04-28T05:37:07.681Z,20.90
2019-04-28T05:40:13.105Z,20.90
2019-04-28T05:43:21.551Z,20.90
2019-04-28T05:46:26.954Z,20.90
2019-04-28T05:49:51.452Z,21.00
2019-04-28T05:53:13.566Z,21.00
2019-04-28T05:56:29.583Z,21.00
2019-04-28T05:59:55.847Z,20.90
2019-04-28T06:03:01.890Z,20.90
2019-04-28T06:06:10.125Z,20.90
2019-04-28T06:09:23.016Z,20.90
2019-04-28T06:12:31.673Z,20.90
2019-04-28T06:15:37.126Z,20.90
2019-04-28T06:18:44.114Z,20.90
2019-04-28T06:21:50.763Z,20.90
2019-04-28T06:24:56.208Z,20.90
2019-04-28T06:28:01.649Z,20.90
2019-04-28T06:31:07.074Z,20.90
2019-04-28T06:34:13.602Z,20.90
2019-04-28T06:37:19.312Z,20.90
2019-04-28T06:40:24.897Z,20.90
2019-04-28T06:43:31.538Z,20.90
2019-04-28T06:46:38.893Z,20.90
2019-04-28T06:49:45.450Z,20.90
2019-04-28T06:52:54.006Z,20.90
2019-04-28T06:55:59.443Z,20.90
2019-04-28T06:59:06.138Z,21.00
2019-04-28T07:02:13.143Z,21.00
2019-04-28T07:05:18.646Z,21.00
2019-04-28T07:08:25.906Z,20.90
2019-04-28T07:11:31.558Z,21.00
2019-04-28T07:14:38.882Z,21.00
2019-04-28T07:17:44.358Z,21.00
2019-04-28T07:21:04.515Z,21.00
2019-04-28T07:24:11.819Z,21.00
2019-04-28T07:27:17.469Z,21.10
2019-04-28T07:30:23.815Z,21.10
2019-04-28T07:33:36.043Z,21.10
2019-04-28T07:36:41.515Z,21.10
2019-04-28T07:39:46.946Z,21.10
2019-04-28T07:42:53.632Z,21.10
2019-04-28T07:46:01.075Z,21.10
2019-04-28T07:49:08.308Z,21.10
2019-04-28T07:52:28.740Z,21.20
2019-04-28T07:55:34.338Z,21.10
2019-04-28T07:58:40.903Z,21.20
2019-04-28T08:01:47.271Z,21.10
2019-04-28T08:04:52.778Z,21.20
2019-04-28T08:07:58.325Z,21.10
2019-04-28T08:11:05.183Z,21.20
2019-04-28T08:14:10.661Z,21.20
2019-04-28T08:17:16.215Z,21.20
2019-04-28T08:20:21.754Z,21.20
2019-04-28T08:23:27.341Z,21.20
2019-04-28T08:26:32.964Z,21.10
2019-04-28T08:29:38.375Z,21.20
2019-04-28T08:32:57.537Z,21.20
2019-04-28T08:36:03.105Z,21.10
2019-04-28T08:39:09.194Z,21.10
2019-04-28T08:42:14.995Z,21.10
2019-04-28T08:45:20.602Z,21.00
2019-04-28T08:48:28.608Z,21.00
2019-04-28T08:51:34.358Z,20.90
2019-04-28T08:54:43.203Z,20.90
2019-04-28T08:57:49.921Z,20.90
2019-04-28T09:00:57.656Z,20.90
2019-04-28T09:04:15.191Z,20.90
2019-04-28T09:07:14.950Z,20.90
2019-04-28T09:10:25.363Z,20.90
2019-04-28T09:13:30.939Z,20.90
2019-04-28T09:16:36.445Z,20.90
2019-04-28T09:19:42.541Z,20.80
2019-04-28T09:22:51.322Z,20.80
2019-04-28T09:25:56.999Z,20.80
2019-04-28T09:29:04.073Z,20.80
2019-04-28T09:32:10.761Z,20.80
2019-04-28T09:35:16.217Z,20.90
2019-04-28T09:38:22.691Z,21.00
2019-04-28T09:41:28.467Z,21.10
2019-04-28T09:44:35.770Z,21.10
2019-04-28T09:47:41.478Z,21.20
2019-04-28T09:50:49.810Z,21.10
2019-04-28T09:53:55.227Z,21.20
2019-04-28T09:57:01.043Z,21.20
2019-04-28T10:00:08.606Z,21.30
2019-04-28T10:03:14.413Z,21.20
2019-04-28T10:06:21.151Z,21.30
2019-04-28T10:09:26.655Z,21.30
2019-04-28T10:12:32.432Z,21.30
2019-04-28T10:15:38.322Z,21.30
2019-04-28T10:18:43.938Z,21.30
2019-04-28T10:21:49.382Z,21.30
2019-04-28T10:24:54.865Z,21.30
2019-04-28T10:28:00.329Z,21.30
2019-04-28T10:31:08.021Z,21.30
2019-04-28T10:34:13.433Z,21.30
2019-04-28T10:37:22.199Z,21.40
2019-04-28T10:40:46.387Z,21.30
2019-04-28T10:43:52.011Z,21.40
2019-04-28T10:46:58.921Z,21.40
2019-04-28T10:50:06.006Z,21.50
2019-04-28T10:53:13.067Z,21.50
2019-04-28T10:56:18.543Z,21.50
2019-04-28T10:59:26.815Z,21.60
2019-04-28T11:02:32.310Z,21.60
2019-04-28T11:05:42.030Z,21.60
2019-04-28T11:09:30.355Z,21.60
2019-04-28T11:12:32.778Z,21.60
2019-04-28T11:15:38.266Z,21.60
2019-04-28T11:18:44.875Z,21.60
2019-04-28T11:21:51.582Z,21.60
2019-04-28T11:24:57.099Z,21.60
2019-04-28T11:28:03.513Z,21.60
2019-04-28T11:31:09.263Z,21.60
2019-04-28T11:34:24.695Z,21.60
2019-04-28T11:37:32.097Z,21.60
2019-04-28T11:40:37.580Z,21.70
2019-04-28T11:43:43.102Z,21.70
2019-04-28T11:46:51.354Z,21.70
2019-04-28T11:49:56.937Z,21.70
2019-04-28T11:53:03.438Z,21.70
2019-04-28T11:56:10.894Z,21.70
2019-04-28T11:59:17.395Z,21.70
2019-04-28T12:02:24.009Z,21.70
2019-04-28T12:05:44.830Z,21.70
2019-04-28T12:08:52.343Z,21.70
2019-04-28T12:11:59.326Z,21.70
2019-04-28T12:15:40.647Z,21.70
2019-04-28T12:18:57.969Z,21.70
2019-04-28T12:22:03.503Z,21.70
2019-04-28T12:25:11.079Z,21.70
2019-04-28T12:28:16.681Z,21.70
2019-04-28T12:31:23.835Z,21.70
2019-04-28T12:34:30.841Z,21.70
2019-04-28T12:37:37.471Z,21.80
2019-04-28T12:40:45.478Z,21.80
2019-04-28T12:43:51.101Z,21.80
2019-04-28T12:46:59.965Z,21.80
2019-04-28T12:50:16.256Z,21.80
2019-04-28T12:53:25.430Z,21.80
2019-04-28T12:56:30.870Z,21.80
2019-04-28T12:59:53.216Z,21.80
2019-04-28T13:03:19.850Z,21.80
2019-04-28T13:06:25.325Z,21.90
2019-04-28T13:10:16.735Z,21.80
2019-04-28T13:13:24.660Z,21.80
2019-04-28T13:16:33.511Z,21.80
2019-04-28T13:19:40.273Z,21.90
2019-04-28T13:22:45.847Z,22.10
2019-04-28T13:25:54.295Z,22.20
2019-04-28T13:29:01.863Z,22.20
2019-04-28T13:32:10.937Z,22.30
2019-04-28T13:35:16.841Z,22.40
2019-04-28T13:38:24.275Z,22.50
2019-04-28T13:41:31.037Z,22.60
2019-04-28T13:45:01.418Z,22.70
2019-04-28T13:48:08.151Z,22.70
2019-04-28T13:51:16.871Z,22.80
2019-04-28T13:54:22.782Z,22.90
2019-04-28T13:57:28.329Z,23.20
2019-04-28T14:01:02.086Z,23.50
2019-04-28T14:04:30.861Z,23.60
2019-04-28T14:07:37.497Z,23.50
2019-04-28T14:10:45.893Z,23.50
2019-04-28T14:13:52.715Z,23.40
2019-04-28T14:16:58.199Z,23.30
2019-04-28T14:20:04.162Z,23.20
2019-04-28T14:23:11.966Z,23.10
2019-04-28T14:26:18.570Z,23.00
2019-04-28T14:29:26.487Z,22.90
2019-04-28T14:32:33.510Z,22.80
2019-04-28T14:35:40.017Z,22.80
2019-04-28T14:38:47.369Z,22.80
2019-04-28T14:41:53.048Z,22.80
2019-04-28T14:44:59.172Z,22.80
2019-04-28T14:48:07.055Z,22.80
2019-04-28T14:51:13.811Z,22.80
2019-04-28T14:54:22.521Z,22.80
2019-04-28T14:57:29.047Z,22.80
2019-04-28T15:00:40.451Z,22.80
2019-04-28T15:03:49.365Z,22.80
2019-04-28T15:07:03.531Z,22.80
2019-04-28T15:10:19.275Z,22.90
2019-04-28T15:13:25.353Z,22.80
2019-04-28T15:16:32.991Z,22.80
2019-04-28T15:19:41.260Z,22.80
2019-04-28T15:22:47.931Z,22.80
2019-04-28T15:25:55.144Z,22.80
2019-04-28T15:29:01.769Z,22.80
2019-04-28T15:32:11.034Z,22.80
2019-04-28T15:35:17.585Z,22.80
2019-04-28T15:38:23.145Z,22.80
2019-04-28T15:41:31.085Z,22.70
2019-04-28T15:44:37.778Z,22.70
2019-04-28T15:47:45.029Z,22.70
2019-04-28T15:50:50.527Z,22.70
2019-04-28T15:53:57.219Z,22.60
2019-04-28T15:57:03.940Z,22.50
2019-04-28T16:00:12.752Z,22.50
2019-04-28T16:03:18.252Z,22.40
2019-04-28T16:06:25.470Z,22.40
2019-04-28T16:09:31.123Z,22.30
2019-04-28T16:12:37.832Z,22.30
2019-04-28T16:15:43.231Z,22.30
2019-04-28T16:18:50.563Z,22.30
2019-04-28T16:21:58.922Z,22.30
2019-04-28T16:25:04.711Z,22.30
2019-04-28T16:28:10.321Z,22.30
2019-04-28T16:31:16.898Z,22.20
2019-04-28T16:34:24.609Z,22.20
2019-04-28T16:37:38.622Z,22.20
2019-04-28T16:40:42.857Z,22.20
2019-04-28T16:43:57.046Z,22.20
2019-04-28T16:47:02.442Z,22.10
2019-04-28T16:50:09.545Z,22.10
2019-04-28T16:53:17.499Z,22.10
2019-04-28T16:56:49.869Z,22.00
2019-04-28T17:00:13.086Z,22.00
2019-04-28T17:03:20.656Z,22.00
2019-04-28T17:06:26.278Z,22.00
2019-04-28T17:09:31.824Z,22.00
2019-04-28T17:12:38.862Z,22.00
2019-04-28T17:15:45.773Z,22.00
2019-04-28T17:18:52.930Z,22.00
2019-04-28T17:21:59.969Z,22.00
2019-04-28T17:25:06.894Z,22.00
2019-04-28T17:28:12.510Z,22.00
2019-04-28T17:31:19.038Z,22.00
2019-04-28T17:34:27.054Z,22.00
2019-04-28T17:37:35.051Z,22.00
2019-04-28T17:40:42.103Z,21.90
2019-04-28T17:43:51.924Z,22.00
2019-04-28T17:46:57.903Z,21.90
2019-04-28T17:55:21.481Z,21.90
2019-04-28T18:12:31.095Z,21.80
2019-04-28T18:15:56.345Z,21.80
2019-04-28T18:19:06.811Z,21.80
2019-04-28T18:22:13.330Z,21.80
2019-04-28T18:25:20.895Z,21.80
2019-04-28T18:28:27.351Z,21.80
2019-04-28T18:31:53.774Z,21.80
2019-04-28T18:35:11.147Z,21.80
2019-04-28T18:38:38.835Z,21.80
2019-04-28T18:47:17.830Z,21.80
2019-04-28T18:50:25.700Z,21.70
2019-04-28T18:53:31.821Z,21.70
2019-04-28T18:56:38.608Z,21.70
2019-04-28T18:59:44.867Z,21.80
2019-04-28T19:02:52.420Z,21.70
2019-04-28T19:05:59.440Z,21.80
2019-04-28T19:09:31.640Z,21.70
2019-04-28T19:17:13.583Z,21.70
2019-04-28T19:19:29.927Z,21.70
2019-04-28T19:20:20.654Z,21.80
2019-04-28T19:23:27.285Z,21.70
2019-04-28T19:26:33.891Z,21.70
2019-04-28T19:29:40.562Z,21.70
2019-04-28T19:32:47.174Z,21.70
2019-04-28T19:35:53.882Z,21.80
2019-04-28T19:39:03.422Z,21.80
2019-04-28T19:42:09.902Z,21.80
2019-04-28T19:45:17.351Z,21.80
2019-04-28T19:48:22.982Z,21.80
2019-04-28T19:51:32.047Z,21.70
2019-04-28T19:54:38.233Z,21.70
2019-04-28T19:57:59.662Z,21.70
2019-04-28T20:01:16.478Z,21.70
2019-04-28T20:04:22.207Z,21.70
2019-04-28T20:07:28.943Z,21.70
2019-04-28T20:10:36.309Z,21.70
2019-04-28T20:13:42.931Z,21.70
2019-04-28T20:16:48.499Z,21.70
2019-04-28T20:19:53.994Z,21.70
2019-04-28T20:23:00.693Z,21.70
2019-04-28T20:26:07.393Z,21.70
2019-04-28T20:29:13.270Z,21.70
2019-04-28T20:32:18.833Z,21.70
2019-04-28T20:35:30.642Z,21.70
2019-04-28T20:38:37.658Z,21.60
2019-04-28T20:41:45.098Z,21.60
2019-04-28T20:44:51.731Z,21.60
2019-04-28T20:47:58.346Z,21.60
2019-04-28T20:51:03.878Z,21.60
2019-04-28T20:54:09.492Z,21.60
2019-04-28T20:57:16.711Z,21.60
2019-04-28T21:00:24.062Z,21.50
2019-04-28T21:03:29.713Z,21.60
2019-04-28T21:06:36.322Z,21.60
2019-04-28T21:09:41.811Z,21.50
2019-04-28T21:12:47.291Z,21.50
2019-04-28T21:15:55.874Z,21.50
2019-04-28T21:19:05.084Z,21.50
2019-04-28T21:22:11.872Z,21.50
2019-04-28T21:25:18.394Z,21.40
2019-04-28T21:28:23.991Z,21.40
2019-04-28T21:31:32.835Z,21.40
2019-04-28T21:34:38.606Z,21.40
2019-04-28T21:37:45.554Z,21.40
2019-04-28T21:40:51.009Z,21.40
2019-04-28T21:44:12.178Z,21.40
2019-04-28T21:47:22.911Z,21.40
2019-04-28T21:50:28.438Z,21.50
2019-04-28T21:53:36.608Z,21.50
2019-04-28T21:56:44.790Z,21.40
2019-04-28T21:59:52.686Z,21.40
2019-04-28T22:02:58.180Z,21.40
2019-04-28T22:06:03.798Z,21.40
2019-04-28T22:09:10.885Z,21.40
2019-04-28T22:12:19.203Z,21.40
2019-04-28T22:15:26.424Z,21.40
2019-04-28T22:18:33.302Z,21.30
2019-04-28T22:21:38.818Z,21.30
2019-04-28T22:24:59.662Z,21.30
2019-04-28T22:28:07.990Z,21.30
2019-04-28T22:31:13.466Z,21.30
2019-04-28T22:34:20.959Z,21.20
2019-04-28T22:37:27.834Z,21.20
2019-04-28T22:40:33.315Z,21.30
2019-04-28T22:43:38.866Z,21.20
2019-04-28T22:46:45.850Z,21.20
2019-04-28T22:49:53.213Z,21.20
2019-04-28T22:53:00.098Z,21.20
2019-04-28T22:56:25.546Z,21.20
2019-04-28T22:59:35.178Z,21.20
2019-04-28T23:02:40.773Z,21.20
2019-04-28T23:05:47.350Z,21.20
2019-04-28T23:08:52.834Z,21.20
2019-04-28T23:12:00.086Z,21.20
2019-04-28T23:15:07.417Z,21.10
2019-04-28T23:22:49.947Z,21.10
2019-04-28T23:30:48.811Z,21.10
2019-04-28T23:33:54.460Z,21.00
2019-04-28T23:37:00.125Z,21.00
2019-04-28T23:40:06.977Z,21.00
2019-04-28T23:43:17.139Z,21.00
2019-04-28T23:46:24.378Z,21.00
2019-04-28T23:49:31.145Z,21.00
2019-04-28T23:52:55.793Z,21.00
2019-04-28T23:56:02.684Z,21.00
2019-04-28T23:59:08.328Z,21.00
